Time;durP1;ratioP1;P1;durP2;ratioP2;P2;SDS_P1;SDS_P2;PMS_P1;PMS_P2;Temp;Humidity;BMP_temperature;BMP_pressure;BME280_temperature;BME280_humidity;BME280_pressure;Samples;Min_cycle;Max_cycle;Signal;HPM_P1;HPM_P2
2023/06/17 00:00:09;;;;;;;2.63;1.45;;;;;;;24.11;58.65;98634.22;2069704;28;20141;-51
2023/06/17 00:01:11;;;;;;;1.92;1.83;;;;;;;24.09;59.10;98636.31;2070528;28;20050;-52
2023/06/17 00:02:11;;;;;;;1.77;1.67;;;;;;;24.07;59.11;98635.72;2072430;28;20368;-48
2023/06/17 00:03:13;;;;;;;1.92;1.63;;;;;;;24.06;58.90;98636.81;2069739;28;20071;-50
2023/06/17 00:04:14;;;;;;;1.73;1.63;;;;;;;24.07;58.76;98643.88;2070269;28;20053;-51
2023/06/17 00:05:16;;;;;;;1.70;1.55;;;;;;;24.09;58.83;98644.47;2071473;28;20049;-50
2023/06/17 00:06:17;;;;;;;1.55;1.45;;;;;;;24.08;58.89;98646.34;2070941;28;20060;-48
2023/06/17 00:07:19;;;;;;;2.00;1.77;;;;;;;24.06;58.72;98645.75;2069745;28;20408;-53
2023/06/17 00:08:21;;;;;;;1.70;1.60;;;;;;;24.06;58.91;98647.66;2073150;28;20045;-50
2023/06/17 00:09:22;;;;;;;2.17;1.58;;;;;;;24.05;59.08;98646.00;2071770;28;20052;-52
2023/06/17 00:10:23;;;;;;;1.80;1.70;;;;;;;24.06;58.84;98647.66;2071652;28;20053;-53
2023/06/17 00:11:28;;;;;;;2.30;1.67;;;;;;;24.06;58.98;98640.34;2070210;28;20058;-55
2023/06/17 00:12:31;;;;;;;1.92;1.70;;;;;;;24.07;59.20;98643.88;2071493;28;20081;-54
2023/06/17 00:13:33;;;;;;;1.90;1.33;;;;;;;24.07;58.91;98641.16;2072236;28;20270;-51
2023/06/17 00:14:34;;;;;;;1.70;1.60;;;;;;;24.06;59.01;98636.81;2073247;28;20084;-53
2023/06/17 00:15:36;;;;;;;1.50;1.40;;;;;;;24.06;58.78;98647.66;2071653;28;20054;-52
2023/06/17 00:16:43;;;;;;;1.35;1.25;;;;;;;24.07;59.09;98646.56;2070649;28;20041;-53
2023/06/17 00:17:46;;;;;;;1.73;1.35;;;;;;;24.05;58.90;98633.28;2071194;28;20313;-52
2023/06/17 00:18:47;;;;;;;1.50;1.40;;;;;;;24.04;58.82;98638.91;2072343;28;20118;-54
2023/06/17 00:19:49;;;;;;;1.38;1.27;;;;;;;24.05;58.94;98635.19;2065045;28;20058;-53
2023/06/17 00:20:52;;;;;;;1.50;1.40;;;;;;;24.05;59.01;98641.41;2070869;28;22331;-51
2023/06/17 00:21:54;;;;;;;1.60;1.50;;;;;;;24.04;59.01;98639.78;2062845;28;20049;-50
2023/06/17 00:22:55;;;;;;;1.45;1.35;;;;;;;24.05;58.76;98637.88;2068656;28;20087;-52
2023/06/17 00:23:58;;;;;;;1.70;1.60;;;;;;;24.05;58.98;98640.59;2068656;28;20057;-50
2023/06/17 00:24:59;;;;;;;2.03;1.77;;;;;;;24.06;58.75;98634.09;2071696;28;20153;-54
2023/06/17 00:26:03;;;;;;;1.80;1.70;;;;;;;24.05;58.69;98644.13;2071524;28;20049;-49
2023/06/17 00:27:04;;;;;;;1.60;1.50;;;;;;;24.05;58.74;98644.13;2070901;28;20053;-52
2023/06/17 00:28:05;;;;;;;1.50;1.40;;;;;;;24.04;58.79;98649.75;2072401;28;20093;-48
2023/06/17 00:29:07;;;;;;;1.50;1.40;;;;;;;24.05;58.86;98646.81;2071007;28;20089;-52
2023/06/17 00:30:09;;;;;;;1.50;1.40;;;;;;;24.05;59.05;98648.72;2071830;28;20524;-50
2023/06/17 00:31:11;;;;;;;2.15;1.95;;;;;;;24.02;59.29;98647.31;2071371;28;20160;-51
2023/06/17 00:32:12;;;;;;;2.30;1.58;;;;;;;24.03;58.72;98642.72;2069936;28;20056;-52
2023/06/17 00:33:13;;;;;;;1.50;1.35;;;;;;;24.04;58.91;98647.06;2071413;28;20057;-53
2023/06/17 00:34:15;;;;;;;1.67;1.58;;;;;;;24.04;58.99;98649.75;2068460;28;20061;-54
2023/06/17 00:35:16;;;;;;;2.10;1.75;;;;;;;24.03;58.83;98650.84;2071890;28;20136;-50
2023/06/17 00:36:18;;;;;;;2.40;1.60;;;;;;;24.05;58.92;98646.00;2071245;28;20283;-49
2023/06/17 00:37:19;;;;;;;4.40;1.83;;;;;;;24.06;58.90;98653.06;2070849;28;20092;-55
2023/06/17 00:38:21;;;;;;;1.50;1.40;;;;;;;24.04;58.92;98650.63;2069471;28;20107;-51
2023/06/17 00:39:23;;;;;;;1.35;1.23;;;;;;;24.03;58.92;98637.28;2071415;28;20128;-52
2023/06/17 00:40:25;;;;;;;1.92;1.42;;;;;;;24.04;58.85;98647.06;2071177;28;20081;-54
2023/06/17 00:41:26;;;;;;;2.13;1.67;;;;;;;24.05;59.02;98651.44;2070245;28;20124;-51
2023/06/17 00:42:28;;;;;;;1.50;1.35;;;;;;;24.06;59.16;98651.16;2068611;28;20053;-49
2023/06/17 00:43:28;;;;;;;1.50;1.40;;;;;;;24.04;59.10;98652.47;2070948;28;20157;-48
2023/06/17 00:44:30;;;;;;;1.80;1.65;;;;;;;24.01;58.87;98653.78;2071490;28;20539;-50
2023/06/17 00:45:38;;;;;;;1.48;1.38;;;;;;;24.03;59.07;98648.13;2071314;28;20065;-49
2023/06/17 00:46:45;;;;;;;1.65;1.55;;;;;;;24.03;59.22;98650.84;2070904;28;20072;-50
2023/06/17 00:47:46;;;;;;;1.92;1.60;;;;;;;24.01;59.12;98651.06;2072684;28;20045;-51
2023/06/17 00:48:48;;;;;;;1.40;1.30;;;;;;;24.01;58.78;98650.25;2069448;28;20460;-48
2023/06/17 00:49:53;;;;;;;1.35;1.25;;;;;;;24.01;59.04;98655.66;2071215;28;20049;-49
2023/06/17 00:51:01;;;;;;;1.55;1.45;;;;;;;24.02;59.13;98649.19;2069838;28;20048;-49
2023/06/17 00:52:04;;;;;;;1.70;1.60;;;;;;;24.01;59.21;98652.94;2071591;28;20597;-50
2023/06/17 00:53:07;;;;;;;1.45;1.35;;;;;;;24.02;58.96;98657.31;2067926;28;20522;-49
2023/06/17 00:54:08;;;;;;;1.50;1.40;;;;;;;24.01;58.96;98661.09;2069733;28;20161;-50
2023/06/17 00:55:12;;;;;;;1.60;1.50;;;;;;;24.02;59.10;98651.91;2069817;28;20055;-50
2023/06/17 00:56:31;;;;;;;2.05;1.70;;;;;;;24.01;59.10;98661.09;2066939;28;20591;-53
2023/06/17 00:57:34;;;;;;;1.50;1.40;;;;;;;23.99;59.14;98665.94;2070101;28;20050;-52
2023/06/17 00:58:35;;;;;;;1.50;1.40;;;;;;;24.00;58.87;98662.16;2070455;28;20217;-54
2023/06/17 00:59:39;;;;;;;1.92;1.73;;;;;;;24.01;58.87;98671.91;2073568;28;20136;-50
2023/06/17 01:00:58;;;;;;;1.58;1.48;;;;;;;23.98;59.13;98666.97;2072350;28;20049;-48
2023/06/17 01:02:00;;;;;;;1.30;1.20;;;;;;;23.99;58.84;98672.16;2071629;28;20132;-49
2023/06/17 01:03:02;;;;;;;1.95;1.75;;;;;;;23.98;59.25;98675.09;2068768;28;20069;-50
2023/06/17 01:04:04;;;;;;;2.45;1.30;;;;;;;23.99;59.05;98664.03;2070513;28;20052;-50
2023/06/17 01:05:10;;;;;;;1.00;1.00;;;;;;;24.03;59.11;98664.38;2069078;28;20057;-49
2023/06/17 01:06:19;;;;;;;1.60;1.50;;;;;;;24.04;59.00;98666.03;2071579;28;20373;-48
2023/06/17 01:07:35;;;;;;;1.65;1.55;;;;;;;24.01;58.81;98652.94;2073362;28;20052;-50
2023/06/17 01:08:42;;;;;;;1.73;1.63;;;;;;;24.01;58.83;98652.94;2070499;28;20500;-49
2023/06/17 01:09:49;;;;;;;1.80;1.70;;;;;;;24.02;58.80;98651.91;2070332;28;20242;-53
2023/06/17 01:10:59;;;;;;;1.83;1.65;;;;;;;24.02;59.11;98649.19;2069333;28;20045;-49
2023/06/17 01:12:04;;;;;;;1.45;1.35;;;;;;;23.98;58.88;98648.84;2069780;28;20818;-52
2023/06/17 01:13:06;;;;;;;1.63;1.52;;;;;;;24.00;59.08;98654.03;2069679;28;20601;-49
2023/06/17 01:14:10;;;;;;;1.40;1.30;;;;;;;24.01;59.10;98650.25;2071169;28;20045;-50
2023/06/17 01:15:15;;;;;;;1.15;1.05;;;;;;;24.02;58.69;98654.63;2067861;28;20404;-51
2023/06/17 01:16:19;;;;;;;1.98;1.60;;;;;;;24.01;59.21;98655.66;2068863;28;20132;-49
2023/06/17 01:17:20;;;;;;;1.30;1.20;;;;;;;24.01;59.13;98659.19;2070564;28;20049;-50
2023/06/17 01:18:24;;;;;;;1.95;1.55;;;;;;;23.99;58.84;98649.69;2071887;28;20055;-48
2023/06/17 01:19:25;;;;;;;1.60;1.50;;;;;;;24.02;59.01;98643.78;2068581;28;20041;-50
2023/06/17 01:20:28;;;;;;;1.50;1.40;;;;;;;24.03;58.63;98642.72;2070134;28;20477;-48
2023/06/17 01:21:30;;;;;;;1.50;1.40;;;;;;;24.01;58.67;98639.41;2070178;28;20415;-51
2023/06/17 01:22:33;;;;;;;1.30;1.17;;;;;;;24.02;58.71;98632.94;2072094;28;20049;-52
2023/06/17 01:23:37;;;;;;;1.63;1.52;;;;;;;24.00;58.96;98632.34;2072099;28;20083;-50
2023/06/17 01:24:41;;;;;;;1.88;1.70;;;;;;;24.03;58.75;98629.97;2071791;28;20056;-48
2023/06/17 01:25:41;;;;;;;1.50;1.40;;;;;;;24.01;59.13;98634.81;2070458;28;20352;-49
2023/06/17 01:26:44;;;;;;;1.98;1.88;;;;;;;24.03;58.92;98632.69;2072191;28;20049;-48
2023/06/17 01:27:46;;;;;;;1.48;1.38;;;;;;;24.00;58.89;98629.66;2068107;28;20057;-51
2023/06/17 01:28:48;;;;;;;1.35;1.23;;;;;;;23.99;58.79;98625.28;2072164;28;20466;-49
2023/06/17 01:29:49;;;;;;;1.52;1.42;;;;;;;23.98;59.06;98615.50;2070814;28;20072;-48
2023/06/17 01:30:54;;;;;;;1.73;1.50;;;;;;;23.98;59.00;98615.50;2072565;28;20495;-50
2023/06/17 01:31:57;;;;;;;1.80;1.70;;;;;;;23.98;58.74;98608.19;2071465;28;20490;-51
2023/06/17 01:33:01;;;;;;;1.45;1.35;;;;;;;23.96;59.08;98602.22;2074317;28;20070;-48
2023/06/17 01:34:05;;;;;;;1.65;1.55;;;;;;;23.98;58.82;98597.34;2071133;28;20049;-49
2023/06/17 01:35:12;;;;;;;1.77;1.67;;;;;;;23.97;58.82;98595.72;2074268;28;20852;-49
2023/06/17 01:36:17;;;;;;;1.77;1.67;;;;;;;23.96;58.78;98585.13;2069473;28;20419;-48
2023/06/17 01:37:30;;;;;;;1.42;1.33;;;;;;;23.99;58.88;98595.50;2072459;28;20130;-48
2023/06/17 01:38:37;;;;;;;1.50;1.40;;;;;;;23.96;58.91;98582.41;2068939;28;20056;-49
2023/06/17 01:39:45;;;;;;;1.58;1.48;;;;;;;23.95;58.78;98586.19;2068693;28;20061;-49
2023/06/17 01:40:51;;;;;;;2.03;1.63;;;;;;;23.95;58.82;98583.47;2072532;28;20153;-48
2023/06/17 01:41:57;;;;;;;1.70;1.60;;;;;;;23.94;59.25;98579.94;2070095;28;20065;-50
2023/06/17 01:43:01;;;;;;;1.20;1.10;;;;;;;23.97;59.25;98578.66;2073313;28;20049;-48
2023/06/17 01:44:05;;;;;;;1.20;1.13;;;;;;;23.94;58.78;98563.69;2068911;28;20095;-49
2023/06/17 01:45:07;;;;;;;1.48;1.38;;;;;;;23.96;58.95;98576.97;2070138;28;20759;-48
2023/06/17 01:46:11;;;;;;;1.65;1.55;;;;;;;23.96;58.93;98567.00;2071957;28;20466;-48
2023/06/17 01:47:12;;;;;;;1.95;1.75;;;;;;;23.94;59.02;98563.69;2070925;28;20145;-48
2023/06/17 01:48:14;;;;;;;1.52;1.42;;;;;;;23.96;58.78;98560.72;2071554;28;20060;-48
2023/06/17 01:49:14;;;;;;;1.50;1.40;;;;;;;23.95;59.04;98553.69;2073105;28;20146;-50
2023/06/17 01:50:19;;;;;;;2.17;1.63;;;;;;;23.97;59.15;98556.97;2071199;28;20080;-51
2023/06/17 01:51:20;;;;;;;1.90;1.60;;;;;;;23.97;58.94;98562.41;2069589;28;20046;-48
2023/06/17 01:52:21;;;;;;;2.08;1.95;;;;;;;23.97;59.01;98551.56;2072408;28;20095;-48
2023/06/17 01:53:24;;;;;;;1.63;1.48;;;;;;;23.96;59.07;98550.75;2071737;28;20537;-49
2023/06/17 01:54:27;;;;;;;2.05;1.52;;;;;;;23.97;59.00;98554.28;2067770;28;20451;-49
2023/06/17 01:55:29;;;;;;;1.50;1.13;;;;;;;23.96;58.97;98552.59;2068722;28;20520;-48
2023/06/17 01:56:32;;;;;;;1.30;1.20;;;;;;;23.97;58.90;98559.69;2072471;28;20052;-48
2023/06/17 01:57:33;;;;;;;1.48;1.38;;;;;;;23.94;59.10;98539.31;2068392;28;20440;-48
2023/06/17 01:58:35;;;;;;;1.88;1.77;;;;;;;23.97;58.61;98554.28;2071111;28;20246;-52
2023/06/17 01:59:36;;;;;;;1.40;1.30;;;;;;;23.94;58.96;98552.88;2069949;28;20140;-49
2023/06/17 02:00:37;;;;;;;2.75;2.47;;;;;;;23.93;58.74;98551.22;2072184;28;20050;-50
2023/06/17 02:01:38;;;;;;;4.00;1.95;;;;;;;23.96;59.08;98550.75;2070359;28;20309;-50
2023/06/17 02:02:40;;;;;;;1.60;1.48;;;;;;;23.96;58.92;98549.91;2074209;28;20530;-51
2023/06/17 02:03:42;;;;;;;1.60;1.50;;;;;;;23.97;58.73;98556.97;2070207;28;20546;-48
2023/06/17 02:04:44;;;;;;;1.70;1.60;;;;;;;23.97;58.96;98552.38;2070321;28;20057;-49
2023/06/17 02:05:45;;;;;;;1.55;1.45;;;;;;;23.98;59.08;98553.19;2066272;28;20508;-48
2023/06/17 02:06:47;;;;;;;1.85;1.75;;;;;;;23.98;58.93;98554.00;2074740;28;20049;-49
2023/06/17 02:07:47;;;;;;;1.52;1.42;;;;;;;23.96;59.00;98555.31;2070807;28;20850;-49
2023/06/17 02:08:49;;;;;;;1.83;1.65;;;;;;;23.95;58.95;98554.50;2073138;28;20424;-52
2023/06/17 02:09:50;;;;;;;1.60;1.48;;;;;;;23.93;58.95;98548.53;2067788;28;20042;-50
2023/06/17 02:10:53;;;;;;;1.55;1.45;;;;;;;23.93;58.87;98553.94;2071367;28;20621;-52
2023/06/17 02:11:55;;;;;;;1.50;1.40;;;;;;;23.92;58.83;98554.16;2070495;28;20136;-48
2023/06/17 02:12:56;;;;;;;1.40;1.30;;;;;;;23.93;58.92;98550.38;2070520;28;20054;-48
2023/06/17 02:13:57;;;;;;;1.52;1.40;;;;;;;23.94;58.64;98549.34;2070376;28;20077;-48
2023/06/17 02:14:59;;;;;;;1.40;1.30;;;;;;;23.96;58.86;98547.19;2069955;28;20049;-48
2023/06/17 02:16:00;;;;;;;1.38;1.27;;;;;;;23.96;58.82;98544.47;2069854;28;20147;-49
2023/06/17 02:17:02;;;;;;;1.27;0.95;;;;;;;23.96;58.59;98545.31;2071082;28;20330;-49
2023/06/17 02:18:04;;;;;;;1.52;1.42;;;;;;;23.95;58.99;98543.66;2070958;28;20061;-48
2023/06/17 02:19:06;;;;;;;1.58;1.27;;;;;;;23.96;58.90;98544.47;2072466;28;20053;-50
2023/06/17 02:20:09;;;;;;;2.20;1.80;;;;;;;23.94;58.99;98541.22;2068919;28;20056;-49
2023/06/17 02:21:11;;;;;;;1.40;1.30;;;;;;;23.96;58.89;98547.19;2069511;28;20456;-49
2023/06/17 02:22:12;;;;;;;1.70;1.60;;;;;;;23.95;59.06;98549.06;2069903;28;21864;-49
2023/06/17 02:23:14;;;;;;;1.77;1.35;;;;;;;23.94;58.99;98546.63;2071761;28;20065;-50
2023/06/17 02:24:15;;;;;;;1.60;1.50;;;;;;;23.93;58.74;98544.97;2070730;28;20069;-48
2023/06/17 02:25:17;;;;;;;1.63;1.52;;;;;;;23.91;58.94;98541.69;2071188;28;20088;-49
2023/06/17 02:26:19;;;;;;;2.13;1.63;;;;;;;23.93;58.79;98550.38;2072040;28;20569;-50
2023/06/17 02:27:21;;;;;;;1.65;1.52;;;;;;;23.94;59.11;98544.75;2072834;28;20288;-48
2023/06/17 02:28:22;;;;;;;1.38;1.27;;;;;;;23.94;58.84;98549.34;2072729;28;20049;-52
2023/06/17 02:29:25;;;;;;;1.63;1.52;;;;;;;23.94;58.94;98552.03;2073269;28;20051;-48
2023/06/17 02:30:25;;;;;;;1.65;1.30;;;;;;;23.93;58.88;98553.09;2071305;28;20177;-49
2023/06/17 02:31:28;;;;;;;1.50;1.40;;;;;;;23.92;58.77;98559.59;2070651;28;20061;-49
2023/06/17 02:32:29;;;;;;;1.70;1.60;;;;;;;23.93;58.79;98561.22;2074434;28;20132;-48
2023/06/17 02:33:33;;;;;;;1.70;1.60;;;;;;;23.94;59.09;98573.72;2072455;28;20053;-50
2023/06/17 02:34:34;;;;;;;1.60;1.50;;;;;;;23.95;58.83;98591.59;2071950;28;20053;-52
2023/06/17 02:35:36;;;;;;;1.83;1.58;;;;;;;23.94;58.76;98595.38;2071654;28;20054;-48
2023/06/17 02:36:38;;;;;;;1.50;1.40;;;;;;;23.95;58.77;98597.84;2071558;28;20107;-48
2023/06/17 02:37:40;;;;;;;1.70;1.60;;;;;;;23.94;58.72;98595.38;2074020;28;20041;-49
2023/06/17 02:38:41;;;;;;;2.08;1.60;;;;;;;23.94;58.83;98588.06;2072590;28;20060;-51
2023/06/17 02:39:43;;;;;;;1.50;1.40;;;;;;;23.94;58.72;98584.56;2071278;28;20081;-52
2023/06/17 02:40:44;;;;;;;2.83;1.38;;;;;;;23.94;58.47;98582.66;2074790;28;20547;-50
2023/06/17 02:41:47;;;;;;;1.48;1.38;;;;;;;23.96;58.79;98582.41;2072422;28;20063;-48
2023/06/17 02:42:48;;;;;;;1.83;1.40;;;;;;;23.94;58.52;98590.78;2071765;28;20342;-48
2023/06/17 02:43:49;;;;;;;1.65;1.55;;;;;;;23.92;58.82;98583.97;2071057;28;20106;-48
2023/06/17 02:44:50;;;;;;;1.20;1.15;;;;;;;23.92;58.85;98573.13;2073460;28;20084;-49
2023/06/17 02:45:52;;;;;;;1.58;1.48;;;;;;;23.91;58.87;98560.66;2074625;28;20149;-48
2023/06/17 02:46:52;;;;;;;1.88;1.50;;;;;;;23.92;58.77;98565.81;2072582;28;20072;-48
2023/06/17 02:47:54;;;;;;;1.42;1.33;;;;;;;23.93;58.92;98561.22;2072118;28;22894;-49
2023/06/17 02:48:55;;;;;;;1.80;1.70;;;;;;;23.92;58.87;98559.59;2070981;28;20095;-49
2023/06/17 02:49:57;;;;;;;3.00;1.60;;;;;;;23.90;59.00;98551.69;2071801;28;20501;-49
2023/06/17 02:50:58;;;;;;;1.65;1.55;;;;;;;23.93;58.55;98551.22;2072389;28;20129;-51
2023/06/17 02:52:00;;;;;;;1.92;1.70;;;;;;;23.93;58.81;98553.09;2071260;28;20476;-50
2023/06/17 02:53:04;;;;;;;1.85;1.67;;;;;;;23.92;58.81;98552.28;2073017;28;20049;-48
2023/06/17 02:54:06;;;;;;;1.55;1.45;;;;;;;23.90;59.11;98556.28;2073277;28;20056;-50
2023/06/17 02:55:07;;;;;;;1.67;1.35;;;;;;;23.90;58.68;98548.97;2071439;28;20271;-50
2023/06/17 02:56:09;;;;;;;1.40;1.30;;;;;;;23.92;58.73;98546.03;2070967;28;20136;-48
2023/06/17 02:57:11;;;;;;;1.95;1.45;;;;;;;23.91;58.78;98533.56;2070567;28;20050;-49
2023/06/17 02:58:15;;;;;;;1.42;1.33;;;;;;;23.92;58.90;98535.19;2071487;28;20526;-48
2023/06/17 02:59:16;;;;;;;1.42;1.33;;;;;;;23.92;58.71;98537.91;2073329;28;20143;-49
2023/06/17 03:00:18;;;;;;;1.58;1.40;;;;;;;23.91;58.71;98533.56;2072383;28;20093;-48
2023/06/17 03:01:21;;;;;;;1.58;1.42;;;;;;;23.91;58.76;98537.09;2072168;28;20052;-49
2023/06/17 03:02:23;;;;;;;1.60;1.50;;;;;;;23.91;58.90;98539.00;2072709;28;20068;-49
2023/06/17 03:03:33;;;;;;;1.13;1.02;;;;;;;23.91;58.57;98536.28;2072275;28;20060;-49
2023/06/17 03:04:35;;;;;;;2.20;1.35;;;;;;;23.86;58.98;98532.38;2073286;28;20319;-49
2023/06/17 03:05:37;;;;;;;1.83;1.48;;;;;;;23.86;58.86;98540.50;2070709;28;20417;-48
2023/06/17 03:06:40;;;;;;;1.52;1.42;;;;;;;23.87;59.07;98552.16;2072791;28;20531;-48
2023/06/17 03:07:42;;;;;;;1.55;1.45;;;;;;;23.89;58.94;98551.94;2070248;28;20315;-48
2023/06/17 03:08:43;;;;;;;1.40;1.27;;;;;;;23.90;59.13;98535.44;2070345;28;20068;-48
2023/06/17 03:09:44;;;;;;;1.63;1.52;;;;;;;23.91;58.76;98536.28;2069793;28;20179;-49
2023/06/17 03:10:46;;;;;;;1.55;1.40;;;;;;;23.90;58.91;98529.19;2072263;28;20251;-48
2023/06/17 03:11:47;;;;;;;1.80;1.70;;;;;;;23.88;58.94;98534.88;2070962;28;20075;-50
2023/06/17 03:12:50;;;;;;;1.48;1.38;;;;;;;23.89;58.59;98541.91;2073627;28;20068;-50
2023/06/17 03:13:50;;;;;;;3.22;1.60;;;;;;;23.90;58.87;98537.31;2070784;28;20060;-48
2023/06/17 03:14:52;;;;;;;1.67;1.40;;;;;;;23.89;58.66;98535.69;2072173;28;20046;-49
2023/06/17 03:15:54;;;;;;;1.30;1.20;;;;;;;23.91;58.86;98530.84;2071073;28;20136;-48
2023/06/17 03:16:57;;;;;;;1.77;1.27;;;;;;;23.90;58.89;98535.44;2072030;28;20778;-48
2023/06/17 03:17:58;;;;;;;1.38;1.27;;;;;;;23.90;58.84;98531.91;2069539;28;20112;-50
2023/06/17 03:19:00;;;;;;;1.60;1.50;;;;;;;23.89;58.82;98527.56;2072196;28;20285;-49
2023/06/17 03:20:04;;;;;;;1.27;1.10;;;;;;;23.91;59.00;98525.44;2070624;28;20390;-50
2023/06/17 03:21:07;;;;;;;1.40;1.30;;;;;;;23.88;58.85;98518.63;2071104;28;20049;-49
2023/06/17 03:22:08;;;;;;;1.20;1.10;;;;;;;23.89;58.58;98520.25;2071791;28;20064;-50
2023/06/17 03:23:11;;;;;;;2.05;1.70;;;;;;;23.89;58.77;98514.00;2070186;28;20082;-49
2023/06/17 03:24:12;;;;;;;2.20;1.60;;;;;;;23.87;58.82;98522.38;2073653;28;20042;-51
2023/06/17 03:25:13;;;;;;;1.80;1.52;;;;;;;23.86;58.70;98521.56;2071701;28;20157;-50
2023/06/17 03:26:16;;;;;;;1.30;1.20;;;;;;;23.86;58.86;98521.56;2072409;28;20053;-51
2023/06/17 03:27:17;;;;;;;1.40;1.30;;;;;;;23.88;58.76;98536.75;2072502;28;20068;-49
2023/06/17 03:28:20;;;;;;;1.83;1.60;;;;;;;23.86;58.69;98539.69;2073239;28;20232;-49
2023/06/17 03:29:22;;;;;;;2.45;1.42;;;;;;;23.88;58.72;98556.53;2071848;28;20136;-49
2023/06/17 03:30:23;;;;;;;1.05;1.00;;;;;;;23.88;58.96;98563.84;2070150;28;20538;-49
2023/06/17 03:31:24;;;;;;;1.63;1.52;;;;;;;23.89;58.92;98562.78;2073050;28;20054;-49
2023/06/17 03:32:25;;;;;;;1.85;1.75;;;;;;;23.88;58.84;98559.25;2070616;28;20077;-48
2023/06/17 03:33:27;;;;;;;1.60;1.40;;;;;;;23.86;58.95;98548.63;2072267;28;20795;-50
2023/06/17 03:34:28;;;;;;;1.20;1.10;;;;;;;23.86;58.94;98540.50;2072481;28;20080;-49
2023/06/17 03:35:30;;;;;;;3.58;1.38;;;;;;;23.88;58.75;98536.75;2072230;28;20060;-49
2023/06/17 03:36:31;;;;;;;1.38;1.25;;;;;;;23.88;58.67;98537.56;2073711;28;20136;-48
2023/06/17 03:37:32;;;;;;;1.73;1.42;;;;;;;23.88;58.88;98536.75;2069289;28;20293;-50
2023/06/17 03:38:34;;;;;;;1.38;1.27;;;;;;;23.88;58.78;98531.34;2071455;28;20435;-48
2023/06/17 03:39:35;;;;;;;2.03;1.63;;;;;;;23.86;58.75;98526.16;2070490;28;20500;-49
2023/06/17 03:40:37;;;;;;;1.45;1.35;;;;;;;23.88;58.69;98531.34;2070868;28;20049;-48
2023/06/17 03:41:38;;;;;;;1.60;1.50;;;;;;;23.87;58.45;98525.06;2072631;28;20312;-49
2023/06/17 03:42:39;;;;;;;1.70;1.60;;;;;;;23.86;59.01;98523.44;2073855;28;20386;-49
2023/06/17 03:43:42;;;;;;;1.50;1.40;;;;;;;23.86;58.84;98524.25;2070880;28;20096;-48
2023/06/17 03:44:43;;;;;;;1.40;1.30;;;;;;;23.86;58.80;98524.25;2070733;28;20461;-49
2023/06/17 03:45:44;;;;;;;1.60;1.50;;;;;;;23.86;58.76;98526.16;2070027;28;20684;-49
2023/06/17 03:46:46;;;;;;;1.17;1.08;;;;;;;23.88;59.00;98520.50;2070622;28;20060;-49
2023/06/17 03:47:47;;;;;;;1.83;1.42;;;;;;;23.89;58.75;98524.84;2071190;28;20144;-50
2023/06/17 03:48:49;;;;;;;1.30;1.20;;;;;;;23.85;58.79;98522.63;2073842;28;20061;-50
2023/06/17 03:49:49;;;;;;;1.48;1.23;;;;;;;23.85;58.74;98528.03;2071307;28;20583;-49
2023/06/17 03:50:51;;;;;;;1.27;1.23;;;;;;;23.84;58.62;98526.38;2073168;28;20049;-48
2023/06/17 03:51:52;;;;;;;1.80;1.33;;;;;;;23.83;58.80;98524.75;2071751;28;20196;-48
2023/06/17 03:52:54;;;;;;;1.50;1.40;;;;;;;23.86;58.74;98524.25;2071437;28;20416;-48
2023/06/17 03:53:54;;;;;;;1.45;1.27;;;;;;;23.86;58.60;98524.25;2069443;28;20136;-48
2023/06/17 03:54:56;;;;;;;2.58;1.50;;;;;;;23.84;58.41;98529.09;2072381;28;20065;-49
2023/06/17 03:55:57;;;;;;;2.28;1.52;;;;;;;23.82;58.73;98527.69;2071967;28;20112;-48
2023/06/17 03:56:59;;;;;;;6.45;1.98;;;;;;;23.82;58.78;98531.25;2072553;28;20545;-49
2023/06/17 03:58:00;;;;;;;1.42;1.33;;;;;;;23.85;58.81;98527.22;2074114;28;20045;-48
2023/06/17 03:59:03;;;;;;;1.38;1.27;;;;;;;23.85;58.77;98524.53;2072968;28;20053;-48
2023/06/17 04:00:06;;;;;;;1.58;1.48;;;;;;;23.85;58.68;98528.03;2071924;28;23168;-48
2023/06/17 04:01:12;;;;;;;1.60;1.50;;;;;;;23.85;58.83;98533.47;2074381;28;20415;-48
2023/06/17 04:02:13;;;;;;;1.92;1.75;;;;;;;23.83;58.71;98529.34;2071153;28;20520;-49
2023/06/17 04:03:15;;;;;;;1.80;1.67;;;;;;;23.83;58.69;98529.34;2072074;28;20076;-50
2023/06/17 04:04:16;;;;;;;1.55;1.42;;;;;;;23.82;58.91;98538.50;2069145;28;20133;-49
2023/06/17 04:05:18;;;;;;;3.50;1.77;;;;;;;23.81;58.81;98539.59;2072919;28;20104;-49
2023/06/17 04:06:19;;;;;;;1.63;1.52;;;;;;;23.83;58.78;98545.59;2069741;28;20053;-52
2023/06/17 04:07:22;;;;;;;1.10;1.10;;;;;;;23.82;58.82;98536.66;2071606;28;20046;-50
2023/06/17 04:08:23;;;;;;;1.35;1.25;;;;;;;23.83;58.61;98534.75;2070819;28;20702;-48
2023/06/17 04:09:25;;;;;;;1.90;1.77;;;;;;;23.80;58.91;98538.78;2071781;28;20049;-49
2023/06/17 04:10:26;;;;;;;1.88;1.25;;;;;;;23.82;58.60;98533.09;2071532;28;20057;-49
2023/06/17 04:11:29;;;;;;;1.38;1.20;;;;;;;23.80;58.71;98536.06;2072425;28;20406;-48
2023/06/17 04:12:30;;;;;;;1.50;1.40;;;;;;;23.78;59.02;98535.47;2072669;28;20141;-52
2023/06/17 04:13:32;;;;;;;1.60;1.30;;;;;;;23.81;58.72;98540.41;2071194;28;20045;-48
2023/06/17 04:14:34;;;;;;;1.92;1.35;;;;;;;23.82;58.58;98544.78;2073071;28;20222;-50
2023/06/17 04:15:36;;;;;;;2.38;1.52;;;;;;;23.81;58.88;98542.28;2071105;28;20049;-48
2023/06/17 04:16:37;;;;;;;1.40;1.30;;;;;;;23.80;58.92;98536.06;2067989;28;20059;-52
2023/06/17 04:17:39;;;;;;;1.45;1.30;;;;;;;23.80;58.64;98541.47;2069408;28;20136;-49
2023/06/17 04:18:40;;;;;;;2.42;1.75;;;;;;;23.79;58.93;98534.44;2071529;28;20054;-49
2023/06/17 04:19:41;;;;;;;1.60;1.50;;;;;;;23.77;58.63;98536.53;2069515;28;20050;-49
2023/06/17 04:20:44;;;;;;;1.00;0.90;;;;;;;23.81;58.81;98531.47;2073088;28;20053;-49
2023/06/17 04:21:46;;;;;;;1.55;1.45;;;;;;;23.82;58.78;98527.69;2072905;28;21191;-48
2023/06/17 04:22:46;;;;;;;1.75;1.10;;;;;;;23.83;58.93;98534.75;2071562;28;20088;-51
2023/06/17 04:23:48;;;;;;;1.40;1.25;;;;;;;23.83;58.75;98535.59;2072127;28;20415;-50
2023/06/17 04:24:55;;;;;;;1.40;1.30;;;;;;;23.81;58.66;98537.69;2072951;28;20050;-48
2023/06/17 04:25:57;;;;;;;2.00;1.63;;;;;;;23.79;58.67;98539.00;2070879;28;20462;-50
2023/06/17 04:26:58;;;;;;;1.40;1.23;;;;;;;23.79;58.94;98547.97;2072002;28;20419;-50
2023/06/17 04:28:01;;;;;;;1.45;1.35;;;;;;;23.79;58.76;98545.25;2067082;28;20049;-52
2023/06/17 04:29:02;;;;;;;1.40;1.30;;;;;;;23.78;58.80;98545.50;2070079;28;20050;-49
2023/06/17 04:30:07;;;;;;;2.22;1.50;;;;;;;23.79;58.90;98547.13;2072982;28;20049;-49
2023/06/17 04:31:10;;;;;;;1.77;1.55;;;;;;;23.79;58.91;98547.13;2073485;28;20263;-48
2023/06/17 04:32:15;;;;;;;1.67;1.58;;;;;;;23.79;58.78;98550.69;2072778;28;20136;-49
2023/06/17 04:33:16;;;;;;;2.17;1.42;;;;;;;23.78;58.71;98543.59;2071770;28;20535;-51
2023/06/17 04:34:22;;;;;;;1.65;1.48;;;;;;;23.79;58.55;98542.56;2073142;28;20485;-48
2023/06/17 04:35:23;;;;;;;1.40;1.30;;;;;;;23.79;58.47;98550.69;2073609;28;20067;-48
2023/06/17 04:36:25;;;;;;;1.73;1.63;;;;;;;23.77;58.88;98547.38;2071382;28;20084;-53
2023/06/17 04:37:26;;;;;;;1.42;1.30;;;;;;;23.74;58.78;98550.56;2071036;28;20057;-50
2023/06/17 04:38:28;;;;;;;1.73;1.55;;;;;;;23.77;58.66;98552.78;2069485;28;20511;-49
2023/06/17 04:39:28;;;;;;;1.70;1.30;;;;;;;23.77;58.88;98558.22;2076215;28;20448;-49
2023/06/17 04:40:32;;;;;;;2.47;1.70;;;;;;;23.80;58.58;98559.63;2070206;28;20052;-48
2023/06/17 04:41:32;;;;;;;1.50;1.40;;;;;;;23.78;58.67;98554.44;2074472;28;20049;-49
2023/06/17 04:42:34;;;;;;;1.55;1.45;;;;;;;23.79;58.76;98549.81;2073220;28;20125;-49
2023/06/17 04:43:36;;;;;;;1.48;1.38;;;;;;;23.79;58.73;98564.22;2071802;28;20054;-51
2023/06/17 04:44:38;;;;;;;1.60;1.23;;;;;;;23.77;58.55;98554.69;2071529;28;20425;-48
2023/06/17 04:45:41;;;;;;;1.80;1.70;;;;;;;23.77;58.88;98563.63;2072291;28;21611;-49
2023/06/17 04:46:43;;;;;;;1.80;1.63;;;;;;;23.77;58.68;98560.91;2073798;28;20054;-50
2023/06/17 04:47:44;;;;;;;2.00;1.48;;;;;;;23.76;58.81;98561.97;2073774;28;20114;-49
2023/06/17 04:48:46;;;;;;;1.73;1.50;;;;;;;23.77;58.74;98570.94;2071015;28;20488;-49
2023/06/17 04:49:47;;;;;;;1.60;1.50;;;;;;;23.77;58.71;98570.94;2072859;28;20573;-49
2023/06/17 04:50:49;;;;;;;1.30;1.20;;;;;;;23.81;58.49;98574.78;2073842;28;20534;-48
2023/06/17 04:51:52;;;;;;;1.42;1.30;;;;;;;23.77;58.61;98562.81;2068787;28;20045;-48
2023/06/17 04:52:54;;;;;;;1.70;1.60;;;;;;;23.79;58.49;98566.94;2071184;28;20495;-48
2023/06/17 04:53:56;;;;;;;1.63;1.52;;;;;;;23.81;58.76;98569.38;2071107;28;20369;-48